McClanahan, Texas
Current Conditions -  °F | °C
As of 10:55 AM on Friday 24 Oct 2014 (Local Time) from KCNW Reporting Station
Clear Clear  
Wind Chill: 72°   Ceiling: Unl
Heat Index: 72°   Visibility: 10mi
Dew Point: 55°   Wind: 6mph
Humidity: 57%   Direction: 170°S
Pressure: 30.2"   Gusts: NA
Location:  31.3313°N, 96.8629°W
Report Text: KCNW 241555Z 17005KT 10SM SKC 22/13 A3020
Loading
Personal Weather Stations






























Interactive Weather Map
Tropical Storm Tracking
New forecast layout! Learn more

10-Day Weather Forecast

Advertisements
Track Severe Weather on mobile